createdAt,value
2019-06-07T00:01:23.071Z,3.20
2019-06-07T00:04:27.379Z,3.27
2019-06-07T00:07:31.691Z,3.47
2019-06-07T00:10:37.105Z,3.30
2019-06-07T00:13:41.676Z,3.40
2019-06-07T00:16:45.986Z,3.37
2019-06-07T00:19:50.556Z,3.43
2019-06-07T00:22:55.030Z,3.57
2019-06-07T00:25:59.331Z,3.27
2019-06-07T00:29:03.722Z,3.43
2019-06-07T00:32:09.268Z,3.33
2019-06-07T00:35:15.483Z,3.40
2019-06-07T00:38:21.895Z,3.30
2019-06-07T00:41:26.061Z,3.50
2019-06-07T00:44:30.380Z,3.30
2019-06-07T00:47:34.719Z,3.20
2019-06-07T00:50:39.024Z,3.40
2019-06-07T00:53:43.316Z,3.33
2019-06-07T00:56:47.636Z,3.37
2019-06-07T00:59:52.037Z,3.70
2019-06-07T01:02:56.349Z,3.90
2019-06-07T01:06:00.643Z,4.27
2019-06-07T01:09:07.560Z,3.93
2019-06-07T01:12:13.814Z,4.83
2019-06-07T01:15:28.545Z,4.00
2019-06-07T01:18:38.213Z,4.27
2019-06-07T01:21:36.333Z,4.30
2019-06-07T01:24:40.638Z,3.90
2019-06-07T01:27:44.975Z,4.17
2019-06-07T01:30:49.224Z,3.70
2019-06-07T01:33:53.542Z,4.63
2019-06-07T01:36:57.832Z,4.07
2019-06-07T01:40:02.212Z,3.83
2019-06-07T01:43:06.506Z,3.80
2019-06-07T01:46:11.900Z,3.70
2019-06-07T01:49:17.112Z,3.47
2019-06-07T01:52:24.841Z,4.23
2019-06-07T01:55:32.622Z,4.63
2019-06-07T01:58:35.009Z,3.93
2019-06-07T02:01:39.392Z,3.90
2019-06-07T02:04:43.716Z,3.70
2019-06-07T02:07:51.610Z,4.00
2019-06-07T02:10:55.928Z,4.43
2019-06-07T02:14:00.238Z,3.93
2019-06-07T02:17:04.655Z,3.97
2019-06-07T02:20:09.639Z,4.50
2019-06-07T02:23:13.983Z,4.40
2019-06-07T02:26:20.438Z,3.43
2019-06-07T02:29:25.449Z,3.90
2019-06-07T02:32:34.670Z,4.83
2019-06-07T02:35:40.326Z,4.60
2019-06-07T02:38:43.080Z,4.50
2019-06-07T02:41:47.431Z,4.03
2019-06-07T02:44:52.917Z,4.03
2019-06-07T02:47:57.378Z,4.33
2019-06-07T02:51:01.674Z,4.40
2019-06-07T02:54:06.243Z,4.50
2019-06-07T02:57:10.553Z,4.57
2019-06-07T03:00:41.757Z,5.30
2019-06-07T03:03:22.727Z,4.37
2019-06-07T03:06:31.836Z,4.90
2019-06-07T03:09:37.218Z,5.00
2019-06-07T03:12:43.070Z,4.80
2019-06-07T03:15:50.163Z,5.37
2019-06-07T03:19:04.895Z,4.97
2019-06-07T03:22:09.184Z,5.33
2019-06-07T03:25:13.486Z,5.03
2019-06-07T03:28:17.797Z,5.20
2019-06-07T03:31:22.097Z,5.50
2019-06-07T03:34:28.885Z,5.20
2019-06-07T03:37:37.577Z,5.50
2019-06-07T03:40:40.199Z,5.80
2019-06-07T03:43:44.687Z,5.50
2019-06-07T03:46:49.116Z,5.37
2019-06-07T03:49:53.519Z,5.57
2019-06-07T03:52:57.826Z,5.20
2019-06-07T03:56:02.285Z,5.20
2019-06-07T03:59:06.650Z,5.37
2019-06-07T04:02:10.959Z,5.57
2019-06-07T04:05:15.356Z,5.70
2019-06-07T04:08:19.664Z,5.30
2019-06-07T04:11:25.092Z,5.23
2019-06-07T04:14:32.833Z,5.17
2019-06-07T04:17:45.388Z,5.10
2019-06-07T04:20:45.211Z,4.60
2019-06-07T04:23:49.522Z,4.77
2019-06-07T04:26:53.829Z,5.10
2019-06-07T04:30:07.195Z,4.53
2019-06-07T04:33:04.166Z,4.93
2019-06-07T04:36:10.181Z,4.30
2019-06-07T04:39:14.679Z,4.70
2019-06-07T04:42:21.217Z,5.00
2019-06-07T04:45:36.275Z,4.40
2019-06-07T04:48:35.998Z,4.70
2019-06-07T04:51:43.461Z,3.73
2019-06-07T04:54:47.798Z,4.70
2019-06-07T04:57:52.165Z,4.07
2019-06-07T05:01:03.038Z,4.17
2019-06-07T05:04:02.759Z,4.03
2019-06-07T05:07:08.956Z,4.40
2019-06-07T05:10:14.444Z,4.20
2019-06-07T05:13:18.865Z,4.87
2019-06-07T05:16:24.973Z,4.37
2019-06-07T05:19:30.588Z,4.80
2019-06-07T05:22:40.845Z,4.40
2019-06-07T05:25:44.738Z,4.87
2019-06-07T05:28:49.312Z,4.43
2019-06-07T05:31:54.119Z,4.80
2019-06-07T05:34:58.542Z,4.90
2019-06-07T05:38:03.059Z,4.87
2019-06-07T05:41:08.104Z,4.97
2019-06-07T05:44:14.998Z,5.03
2019-06-07T05:47:19.039Z,4.73
2019-06-07T05:50:38.920Z,4.70
2019-06-07T05:53:29.452Z,5.10
2019-06-07T05:56:35.715Z,5.07
2019-06-07T05:59:44.305Z,5.10
2019-06-07T06:03:04.347Z,5.10
2019-06-07T06:05:55.604Z,4.87
2019-06-07T06:09:13.493Z,4.03
2019-06-07T06:12:09.544Z,4.93
2019-06-07T06:15:14.272Z,5.10
2019-06-07T06:18:18.664Z,4.03
2019-06-07T06:21:23.052Z,3.50
2019-06-07T06:24:27.448Z,5.57
2019-06-07T06:30:38.237Z,4.00
2019-06-07T06:33:43.440Z,4.37
2019-06-07T06:36:50.353Z,5.00
2019-06-07T06:39:54.934Z,4.23
2019-06-07T06:42:59.517Z,3.77
2019-06-07T06:46:04.069Z,4.13
2019-06-07T06:49:08.518Z,4.33
2019-06-07T06:52:12.906Z,3.93
2019-06-07T06:55:18.574Z,4.20
2019-06-07T06:58:22.870Z,4.00
2019-06-07T07:01:27.214Z,4.53
2019-06-07T07:04:32.144Z,3.80
2019-06-07T07:07:37.028Z,3.37
2019-06-07T07:10:43.341Z,4.00
2019-06-07T07:13:49.876Z,3.87
2019-06-07T07:16:56.507Z,3.80
2019-06-07T07:20:01.215Z,3.60
2019-06-07T07:23:05.830Z,3.33
2019-06-07T07:26:10.231Z,2.93
2019-06-07T07:29:14.592Z,3.30
2019-06-07T07:32:18.921Z,2.73
2019-06-07T07:35:23.776Z,2.87
2019-06-07T07:38:28.344Z,2.83
2019-06-07T07:41:32.731Z,2.87
2019-06-07T07:44:37.096Z,3.73
2019-06-07T07:47:58.335Z,2.83
2019-06-07T07:50:49.807Z,2.93
2019-06-07T07:54:09.382Z,3.20
2019-06-07T07:57:01.169Z,3.30
2019-06-07T08:00:48.854Z,2.90
2019-06-07T08:03:12.633Z,2.60
2019-06-07T08:06:17.195Z,2.40
2019-06-07T08:09:21.604Z,2.80
2019-06-07T08:12:26.272Z,3.03
2019-06-07T08:15:30.712Z,2.47
2019-06-07T08:18:35.176Z,2.60
2019-06-07T08:21:39.574Z,2.63
2019-06-07T08:24:43.945Z,2.37
2019-06-07T08:27:49.509Z,2.50
2019-06-07T08:31:02.420Z,3.33
2019-06-07T08:34:00.790Z,2.53
2019-06-07T08:37:05.422Z,2.80
2019-06-07T08:40:12.407Z,2.73
2019-06-07T08:43:21.030Z,2.10
2019-06-07T08:46:24.410Z,1.80
2019-06-07T08:49:30.552Z,2.13
2019-06-07T08:52:34.867Z,2.23
2019-06-07T08:55:39.226Z,2.00
2019-06-07T08:58:43.544Z,1.90
2019-06-07T09:01:48.841Z,1.90
2019-06-07T09:04:56.420Z,2.50
2019-06-07T09:08:23.583Z,2.30
2019-06-07T09:11:10.893Z,2.10
2019-06-07T09:14:11.407Z,2.00
2019-06-07T09:17:15.720Z,1.57
2019-06-07T09:20:36.315Z,1.67
2019-06-07T09:23:28.132Z,2.30
2019-06-07T09:26:32.932Z,1.90
2019-06-07T09:29:38.575Z,2.23
2019-06-07T09:32:42.902Z,2.00
2019-06-07T09:35:48.634Z,2.50
2019-06-07T09:38:54.473Z,2.40
2019-06-07T09:42:01.596Z,2.60
2019-06-07T09:45:08.859Z,2.00
2019-06-07T09:48:16.126Z,1.90
2019-06-07T09:51:20.399Z,1.67
2019-06-07T09:55:03.044Z,1.70
2019-06-07T09:57:31.358Z,1.50
2019-06-07T10:00:42.115Z,2.07
2019-06-07T10:03:43.208Z,1.30
2019-06-07T10:06:47.513Z,1.50
2019-06-07T10:12:59.434Z,2.00
2019-06-07T10:16:04.778Z,1.83
2019-06-07T10:19:09.943Z,1.67
2019-06-07T10:22:14.398Z,1.60
2019-06-07T10:25:18.718Z,1.60
2019-06-07T10:28:23.307Z,1.50
2019-06-07T10:31:29.662Z,1.67
2019-06-07T10:34:34.055Z,1.77
2019-06-07T10:37:38.364Z,1.70
2019-06-07T10:40:42.834Z,2.10
2019-06-07T10:43:47.119Z,1.87
2019-06-07T10:46:51.441Z,2.07
2019-06-07T10:49:55.749Z,2.50
2019-06-07T10:53:00.045Z,2.23
2019-06-07T10:56:04.898Z,2.00
2019-06-07T10:59:09.822Z,2.03
2019-06-07T11:02:15.317Z,2.40
2019-06-07T11:05:19.805Z,2.70
2019-06-07T11:08:24.119Z,2.90
2019-06-07T11:11:28.570Z,2.63
2019-06-07T11:14:33.045Z,1.77
2019-06-07T11:17:37.347Z,1.70
2019-06-07T11:20:41.650Z,1.90
2019-06-07T11:23:45.940Z,1.70
2019-06-07T11:26:50.298Z,1.07
2019-06-07T11:29:54.841Z,1.80
2019-06-07T11:32:59.361Z,2.23
2019-06-07T11:36:08.649Z,2.20
2019-06-07T11:39:15.196Z,4.90
2019-06-07T11:42:20.201Z,2.40
2019-06-07T11:45:24.518Z,2.23
2019-06-07T11:48:29.937Z,2.07
2019-06-07T11:51:35.327Z,2.40
2019-06-07T11:54:39.908Z,2.07
2019-06-07T11:57:44.336Z,2.00
2019-06-07T12:00:48.696Z,1.77
2019-06-07T12:03:53.102Z,1.93
2019-06-07T12:06:57.453Z,1.93
2019-06-07T12:10:03.290Z,1.67
2019-06-07T12:13:08.357Z,1.20
2019-06-07T12:16:13.541Z,1.30
2019-06-07T12:19:19.885Z,1.67
2019-06-07T12:22:24.285Z,1.40
2019-06-07T12:25:28.899Z,1.40
2019-06-07T12:28:33.308Z,1.70
2019-06-07T12:31:37.629Z,1.80
2019-06-07T12:34:41.949Z,1.60
2019-06-07T12:37:46.303Z,1.83
2019-06-07T12:40:57.692Z,1.67
2019-06-07T12:43:59.144Z,1.50
2019-06-07T12:47:02.987Z,1.07
2019-06-07T12:50:08.160Z,1.10
2019-06-07T12:53:13.626Z,1.07
2019-06-07T12:56:17.990Z,0.90
2019-06-07T12:59:22.379Z,1.20
2019-06-07T13:02:26.683Z,1.00
2019-06-07T13:05:31.079Z,1.10
2019-06-07T13:08:35.475Z,1.30
2019-06-07T13:11:39.879Z,1.43
2019-06-07T13:14:44.394Z,1.10
2019-06-07T13:17:50.448Z,1.40
2019-06-07T13:20:55.667Z,1.30
2019-06-07T13:24:00.286Z,1.30
2019-06-07T13:27:06.083Z,1.30
2019-06-07T13:30:11.455Z,1.40
2019-06-07T13:33:19.069Z,1.40
2019-06-07T13:36:24.368Z,1.50
2019-06-07T13:39:29.833Z,1.67
2019-06-07T13:42:34.256Z,1.53
2019-06-07T13:45:38.626Z,1.40
2019-06-07T13:48:42.990Z,1.30
2019-06-07T13:51:49.092Z,1.20
2019-06-07T13:54:53.477Z,1.20
2019-06-07T13:57:57.775Z,1.17
2019-06-07T14:01:02.154Z,1.20
2019-06-07T14:04:06.447Z,0.97
2019-06-07T14:07:10.742Z,1.03
2019-06-07T14:10:15.697Z,1.30
2019-06-07T14:13:20.122Z,0.93
2019-06-07T14:16:26.304Z,1.30
2019-06-07T14:19:32.140Z,1.43
2019-06-07T14:22:36.567Z,1.67
2019-06-07T14:25:41.473Z,1.83
2019-06-07T14:28:45.763Z,1.83
2019-06-07T14:31:50.467Z,1.80
2019-06-07T14:34:56.220Z,1.97
2019-06-07T14:38:00.753Z,1.93
2019-06-07T14:41:05.094Z,1.90
2019-06-07T14:44:09.421Z,1.93
2019-06-07T14:47:13.751Z,2.20
2019-06-07T14:50:19.221Z,2.30
2019-06-07T14:53:24.513Z,1.90
2019-06-07T14:56:29.530Z,1.77
2019-06-07T14:59:34.917Z,2.03
2019-06-07T15:02:39.904Z,1.90
2019-06-07T15:05:44.485Z,1.60
2019-06-07T15:08:51.421Z,1.67
2019-06-07T15:11:54.886Z,1.40
2019-06-07T15:14:59.179Z,1.37
2019-06-07T15:18:03.568Z,1.73
2019-06-07T15:21:08.121Z,1.50
2019-06-07T15:24:12.419Z,1.60
2019-06-07T15:27:17.062Z,1.50
2019-06-07T15:30:21.861Z,1.73
2019-06-07T15:33:26.192Z,1.60
2019-06-07T15:36:30.474Z,1.53
2019-06-07T15:39:36.644Z,1.60
2019-06-07T15:42:52.055Z,1.40
2019-06-07T15:45:47.550Z,1.10
2019-06-07T15:48:51.875Z,1.50
2019-06-07T15:51:56.171Z,1.20
2019-06-07T15:55:00.480Z,1.10
2019-06-07T15:58:04.770Z,1.07
2019-06-07T16:01:09.071Z,1.07
2019-06-07T16:04:13.370Z,1.00
2019-06-07T16:07:17.661Z,1.20
2019-06-07T16:10:21.955Z,1.20
2019-06-07T16:13:26.384Z,1.07
2019-06-07T16:16:30.781Z,1.17
2019-06-07T16:19:39.250Z,1.13
2019-06-07T16:22:42.290Z,1.10
2019-06-07T16:25:47.722Z,1.03
2019-06-07T16:28:52.041Z,1.13
2019-06-07T16:31:56.396Z,1.37
2019-06-07T16:35:00.694Z,1.00
2019-06-07T16:38:05.319Z,1.03
2019-06-07T16:41:11.429Z,1.50
2019-06-07T16:44:15.834Z,1.30
2019-06-07T16:47:20.142Z,1.73
2019-06-07T16:50:24.975Z,1.47
2019-06-07T16:53:30.360Z,1.90
2019-06-07T16:56:34.656Z,1.63
2019-06-07T16:59:39.026Z,1.60
2019-06-07T17:02:45.026Z,1.43
2019-06-07T17:05:50.569Z,1.57
2019-06-07T17:08:54.949Z,1.47
2019-06-07T17:11:59.394Z,1.50
2019-06-07T17:15:04.037Z,1.50
2019-06-07T17:18:08.406Z,1.50
2019-06-07T17:21:12.740Z,1.60
2019-06-07T17:24:17.043Z,2.00
2019-06-07T17:27:21.365Z,2.00
2019-06-07T17:30:25.902Z,2.67
2019-06-07T17:33:30.192Z,2.40
2019-06-07T17:36:34.500Z,2.63
2019-06-07T17:39:38.799Z,2.57
2019-06-07T17:42:43.105Z,2.97
2019-06-07T17:45:47.598Z,2.87
2019-06-07T17:48:51.879Z,3.20
2019-06-07T17:51:57.391Z,3.40
2019-06-07T17:55:01.676Z,3.57
2019-06-07T17:58:06.020Z,3.40
2019-06-07T18:01:10.323Z,3.43
2019-06-07T18:04:14.618Z,3.40
2019-06-07T18:07:20.838Z,3.47
2019-06-07T18:10:38.299Z,4.13
2019-06-07T18:13:43.941Z,3.33
2019-06-07T18:16:48.462Z,3.67
2019-06-07T18:19:53.039Z,3.80
2019-06-07T18:22:57.431Z,3.13
2019-06-07T18:26:01.956Z,3.30
2019-06-07T18:29:06.365Z,3.43
2019-06-07T18:32:13.476Z,3.13
2019-06-07T18:35:17.908Z,3.40
2019-06-07T18:38:22.239Z,3.33
2019-06-07T18:41:28.337Z,3.93
2019-06-07T18:44:32.644Z,3.60
2019-06-07T18:47:36.950Z,3.70
2019-06-07T18:50:41.350Z,3.73
2019-06-07T18:53:45.645Z,3.50
2019-06-07T18:56:50.755Z,3.53
2019-06-07T18:59:56.462Z,3.40
2019-06-07T19:03:01.055Z,3.00
2019-06-07T19:06:06.941Z,3.23
2019-06-07T19:09:11.195Z,4.00
2019-06-07T19:12:15.507Z,4.07
2019-06-07T19:15:20.722Z,4.57
2019-06-07T19:18:25.149Z,3.20
2019-06-07T19:21:32.440Z,3.10
2019-06-07T19:24:38.458Z,2.93
2019-06-07T19:27:42.771Z,2.93
2019-06-07T19:30:47.160Z,2.90
2019-06-07T19:33:51.517Z,3.03
2019-06-07T19:36:55.807Z,2.50
2019-06-07T19:40:00.202Z,2.80
2019-06-07T19:43:05.537Z,2.53
2019-06-07T19:46:09.929Z,2.60
2019-06-07T19:49:14.346Z,2.40
2019-06-07T19:52:18.724Z,2.37
2019-06-07T19:55:23.044Z,2.07
2019-06-07T19:58:27.406Z,2.00
2019-06-07T20:01:31.665Z,2.10
2019-06-07T20:04:35.955Z,2.07
2019-06-07T20:07:40.500Z,1.87
2019-06-07T20:10:44.892Z,1.90
2019-06-07T20:13:50.279Z,1.87
2019-06-07T20:16:55.185Z,1.73
2019-06-07T20:20:00.528Z,1.53
2019-06-07T20:23:05.394Z,1.80
2019-06-07T20:26:10.937Z,1.60
2019-06-07T20:29:25.902Z,1.80
2019-06-07T20:32:21.684Z,1.80
2019-06-07T20:35:25.978Z,1.93
2019-06-07T20:38:31.392Z,2.30
2019-06-07T20:41:35.692Z,2.00
2019-06-07T20:44:40.025Z,2.10
2019-06-07T20:47:44.325Z,2.20
2019-06-07T20:50:49.065Z,2.63
2019-06-07T20:53:53.414Z,2.50
2019-06-07T20:56:58.816Z,2.30
2019-06-07T21:00:12.229Z,2.10
2019-06-07T21:03:09.701Z,2.43
2019-06-07T21:06:15.321Z,2.20
2019-06-07T21:09:19.647Z,2.10
2019-06-07T21:12:24.184Z,2.70
2019-06-07T21:15:28.659Z,2.40
2019-06-07T21:18:33.002Z,2.10
2019-06-07T21:21:39.125Z,2.40
2019-06-07T21:24:43.430Z,2.60
2019-06-07T21:27:47.718Z,2.27
2019-06-07T21:30:53.588Z,2.47
2019-06-07T21:33:57.907Z,3.30
2019-06-07T21:37:05.565Z,2.90
2019-06-07T21:40:10.550Z,3.13
2019-06-07T21:43:14.873Z,3.40
2019-06-07T21:46:20.643Z,3.70
2019-06-07T21:49:25.238Z,4.37
2019-06-07T21:52:29.687Z,3.73
2019-06-07T21:55:34.013Z,3.83
2019-06-07T21:58:38.408Z,4.60
2019-06-07T22:01:42.771Z,5.03
2019-06-07T22:04:47.110Z,4.53
2019-06-07T22:07:51.472Z,4.97
2019-06-07T22:10:57.263Z,5.33
2019-06-07T22:14:04.156Z,5.43
2019-06-07T22:17:10.509Z,6.10
2019-06-07T22:20:15.142Z,7.13
2019-06-07T22:23:19.514Z,8.07
2019-06-07T22:26:23.822Z,8.73
2019-06-07T22:29:28.173Z,9.40
2019-06-07T22:32:32.463Z,9.57
2019-06-07T22:35:38.210Z,9.73
2019-06-07T22:38:42.512Z,9.97
2019-06-07T22:41:46.811Z,10.63
2019-06-07T22:44:51.129Z,10.60
2019-06-07T22:47:55.529Z,10.27
2019-06-07T22:51:01.501Z,10.67
2019-06-07T22:54:05.842Z,9.70
2019-06-07T22:57:19.840Z,9.40
2019-06-07T23:00:25.468Z,9.87
2019-06-07T23:03:29.762Z,9.60
2019-06-07T23:06:34.175Z,9.97
2019-06-07T23:09:38.483Z,10.07
2019-06-07T23:12:42.794Z,10.13
2019-06-07T23:15:47.128Z,8.73
2019-06-07T23:18:51.431Z,8.10
2019-06-07T23:21:55.730Z,7.97
2019-06-07T23:25:00.027Z,6.87
2019-06-07T23:28:04.391Z,6.50
2019-06-07T23:31:08.697Z,6.90
2019-06-07T23:34:13.059Z,6.33
2019-06-07T23:37:17.313Z,6.40
2019-06-07T23:40:21.686Z,6.77
2019-06-07T23:43:26.059Z,7.23
2019-06-07T23:46:30.506Z,7.80
2019-06-07T23:49:34.806Z,7.87
2019-06-07T23:52:39.433Z,8.80
2019-06-07T23:55:47.498Z,8.97
2019-06-07T23:58:51.811Z,9.23
